createdAt,value
2019-01-09T00:03:13.884Z,97259.55
2019-01-09T00:06:02.653Z,97251.95
2019-01-09T00:08:51.544Z,97152.86
2019-01-09T00:11:40.334Z,96999.24
2019-01-09T00:14:29.143Z,97241.80
2019-01-09T00:20:27.392Z,97237.94
2019-01-09T00:23:16.186Z,97178.69
2019-01-09T00:26:05.145Z,97260.50
2019-01-09T00:28:54.004Z,97258.30
2019-01-09T00:31:42.810Z,97265.12
2019-01-09T00:34:31.602Z,97264.33
2019-01-09T00:37:20.411Z,97255.41
2019-01-09T00:40:30.224Z,97080.05
2019-01-09T00:43:19.081Z,97254.09
2019-01-09T00:46:07.894Z,97254.54
2019-01-09T00:48:56.763Z,97265.16
2019-01-09T00:51:45.645Z,97033.09
2019-01-09T00:54:34.502Z,97270.20
2019-01-09T00:57:23.307Z,97259.08
2019-01-09T01:04:03.347Z,97266.39
2019-01-09T01:10:59.559Z,97257.95
2019-01-09T01:14:27.044Z,97252.05
2019-01-09T01:17:36.800Z,97254.55
2019-01-09T01:20:46.546Z,97258.33
2019-01-09T01:24:14.050Z,97253.70
2019-01-09T01:27:23.745Z,97229.92
2019-01-09T01:30:51.247Z,97272.37
2019-01-09T01:33:34.174Z,97263.48
2019-01-09T01:36:43.942Z,97260.09
2019-01-09T01:40:11.421Z,97036.90
2019-01-09T01:43:21.194Z,97254.95
2019-01-09T01:46:48.678Z,97274.93
2019-01-09T01:50:16.177Z,97266.38
2019-01-09T01:53:43.676Z,97112.23
2019-01-09T01:57:11.181Z,97275.76
2019-01-09T02:00:20.887Z,97273.64
2019-01-09T02:03:30.654Z,97277.47
2019-01-09T02:06:58.146Z,97271.48
2019-01-09T02:10:25.651Z,97278.30
2019-01-09T02:13:35.407Z,97112.64
2019-01-09T02:16:45.155Z,97273.23
2019-01-09T02:19:54.867Z,97284.25
2019-01-09T02:23:04.576Z,97304.53
2019-01-09T02:26:14.293Z,97223.97
2019-01-09T02:29:41.773Z,97241.27
2019-01-09T02:32:31.248Z,97314.89
2019-01-09T02:35:20.036Z,97320.78
2019-01-09T02:38:09.099Z,97318.33
2019-01-09T02:40:57.885Z,97059.75
2019-01-09T02:43:46.703Z,97060.39
2019-01-09T02:46:35.501Z,97316.56
2019-01-09T02:49:24.307Z,97332.30
2019-01-09T02:52:13.141Z,97072.92
2019-01-09T02:55:01.926Z,97316.73
2019-01-09T02:57:56.691Z,97318.36
2019-01-09T03:00:41.231Z,97316.26
2019-01-09T03:03:30.039Z,97071.25
2019-01-09T03:06:23.071Z,97303.59
2019-01-09T03:09:09.363Z,97221.30
2019-01-09T03:11:58.226Z,97027.55
2019-01-09T03:14:47.030Z,97322.67
2019-01-09T03:17:35.814Z,97320.91
2019-01-09T03:20:24.618Z,97064.63
2019-01-09T03:23:13.406Z,97335.47
2019-01-09T03:26:02.221Z,97325.31
2019-01-09T03:28:51.339Z,97157.34
2019-01-09T03:31:40.150Z,97349.34
2019-01-09T03:34:21.788Z,97332.06
2019-01-09T03:37:10.597Z,97328.26
2019-01-09T03:39:59.388Z,97330.75
2019-01-09T03:42:48.196Z,97328.67
2019-01-09T03:45:36.981Z,97154.92
2019-01-09T03:48:25.787Z,97319.80
2019-01-09T03:51:14.595Z,97323.13
2019-01-09T03:54:03.380Z,97317.69
2019-01-09T03:56:52.192Z,97309.19
2019-01-09T03:59:40.991Z,97068.96
2019-01-09T04:02:29.806Z,97309.25
2019-01-09T04:05:18.591Z,97141.83
2019-01-09T04:08:07.393Z,97316.46
2019-01-09T04:10:56.183Z,97298.18
2019-01-09T04:13:44.987Z,97297.38
2019-01-09T04:16:33.774Z,97304.17
2019-01-09T04:19:22.585Z,97303.74
2019-01-09T04:28:15.042Z,97071.59
2019-01-09T04:31:03.828Z,97291.83
2019-01-09T04:33:45.613Z,97299.08
2019-01-09T04:36:34.399Z,97302.02
2019-01-09T04:39:23.204Z,97305.45
2019-01-09T04:42:12.321Z,97320.23
2019-01-09T04:45:01.124Z,97326.42
2019-01-09T04:47:49.922Z,97331.06
2019-01-09T04:50:38.727Z,97348.25
2019-01-09T04:53:27.534Z,97284.33
2019-01-09T04:56:16.320Z,97345.80
2019-01-09T04:59:05.122Z,97346.59
2019-01-09T05:01:53.992Z,97343.69
2019-01-09T05:04:42.797Z,97340.61
2019-01-09T05:07:31.615Z,97348.36
2019-01-09T05:10:20.397Z,97067.54
2019-01-09T05:13:09.180Z,97354.16
2019-01-09T05:15:57.998Z,97340.64
2019-01-09T05:18:46.791Z,97347.94
2019-01-09T05:21:35.604Z,97351.38
2019-01-09T05:24:24.529Z,97342.44
2019-01-09T05:27:32.365Z,97330.11
2019-01-09T05:30:21.161Z,97334.83
2019-01-09T05:33:09.968Z,97352.19
2019-01-09T05:35:52.209Z,97337.43
2019-01-09T05:38:41.168Z,97351.41
2019-01-09T05:41:29.938Z,97116.48
2019-01-09T05:44:18.760Z,97344.69
2019-01-09T05:47:07.550Z,97349.69
2019-01-09T05:49:56.353Z,97341.37
2019-01-09T05:52:45.143Z,97091.64
2019-01-09T05:55:33.968Z,97343.84
2019-01-09T05:58:22.735Z,97102.50
2019-01-09T06:01:11.846Z,97351.34
2019-01-09T06:04:00.633Z,97343.45
2019-01-09T06:06:49.514Z,97320.54
2019-01-09T06:09:38.313Z,97344.69
2019-01-09T06:12:27.111Z,97350.16
2019-01-09T06:15:15.933Z,97335.41
2019-01-09T06:18:04.735Z,97347.63
2019-01-09T06:20:53.529Z,97214.91
2019-01-09T06:23:42.339Z,97337.84
2019-01-09T06:26:31.477Z,97086.38
2019-01-09T06:29:20.439Z,97346.02
2019-01-09T06:32:09.281Z,97242.19
2019-01-09T06:34:51.335Z,97111.45
2019-01-09T06:37:40.144Z,97364.94
2019-01-09T06:40:28.922Z,97363.30
2019-01-09T06:49:11.471Z,97115.22
2019-01-09T06:52:00.260Z,97381.91
2019-01-09T06:54:49.204Z,97265.73
2019-01-09T06:57:39.684Z,97385.03
2019-01-09T07:00:28.467Z,97382.88
2019-01-09T07:03:17.250Z,97134.38
2019-01-09T07:06:06.202Z,97381.93
2019-01-09T07:08:54.943Z,97392.22
2019-01-09T07:11:43.780Z,97168.92
2019-01-09T07:14:32.833Z,97258.13
2019-01-09T07:17:21.714Z,97414.12
2019-01-09T07:20:10.505Z,97335.13
2019-01-09T07:25:53.974Z,97417.24
2019-01-09T07:28:42.779Z,97414.92
2019-01-09T07:31:31.553Z,97414.61
2019-01-09T07:34:13.141Z,97186.84
2019-01-09T07:37:01.927Z,97412.08
2019-01-09T07:39:50.734Z,97428.08
2019-01-09T07:42:39.541Z,97426.09
2019-01-09T07:45:28.331Z,97139.50
2019-01-09T07:48:17.140Z,97412.52
2019-01-09T07:51:05.922Z,97258.42
2019-01-09T07:53:56.347Z,97410.86
2019-01-09T07:56:45.308Z,97411.64
2019-01-09T07:59:34.184Z,97414.66
2019-01-09T08:02:22.976Z,97450.80
2019-01-09T08:05:11.787Z,97347.56
2019-01-09T08:08:00.601Z,97421.80
2019-01-09T08:10:49.403Z,97439.07
2019-01-09T08:13:38.259Z,97437.49
2019-01-09T08:16:27.101Z,97436.61
2019-01-09T08:19:15.899Z,97329.59
2019-01-09T08:22:04.708Z,97448.46
2019-01-09T08:24:53.501Z,97453.50
2019-01-09T08:27:42.351Z,97456.98
2019-01-09T08:30:31.151Z,97456.63
2019-01-09T08:33:38.967Z,97227.91
2019-01-09T08:36:20.233Z,97462.48
2019-01-09T08:39:09.021Z,97475.69
2019-01-09T08:41:57.828Z,97472.98
2019-01-09T08:44:46.641Z,97476.42
2019-01-09T08:47:35.424Z,97487.05
2019-01-09T08:50:24.232Z,97487.91
2019-01-09T08:53:13.045Z,97486.85
2019-01-09T08:56:01.844Z,97490.89
2019-01-09T08:58:50.659Z,97466.22
2019-01-09T09:01:39.470Z,97495.30
2019-01-09T09:04:47.287Z,97499.86
2019-01-09T09:07:36.460Z,97508.68
2019-01-09T09:10:25.250Z,97505.59
2019-01-09T09:13:34.986Z,97427.09
2019-01-09T09:16:23.775Z,97514.62
2019-01-09T09:22:06.536Z,97518.41
2019-01-09T09:27:49.244Z,97534.06
2019-01-09T09:30:38.068Z,97532.97
2019-01-09T09:33:26.879Z,97547.02
2019-01-09T09:36:08.953Z,97538.78
2019-01-09T09:38:57.739Z,97538.05
2019-01-09T09:41:46.571Z,97547.30
2019-01-09T09:44:35.354Z,97555.98
2019-01-09T09:47:43.190Z,97563.53
2019-01-09T09:50:31.994Z,97297.89
2019-01-09T09:53:20.775Z,97559.27
2019-01-09T09:56:09.578Z,97561.16
2019-01-09T09:58:58.442Z,97565.72
2019-01-09T10:01:47.256Z,97590.66
2019-01-09T10:04:36.042Z,97598.13
2019-01-09T10:07:24.856Z,97574.20
2019-01-09T10:10:34.545Z,97573.73
2019-01-09T10:13:23.359Z,97570.22
2019-01-09T10:16:31.171Z,97543.55
2019-01-09T10:19:19.981Z,97574.98
2019-01-09T10:22:28.095Z,97578.45
2019-01-09T10:25:16.911Z,97353.52
2019-01-09T10:28:05.701Z,97552.44
2019-01-09T10:30:54.520Z,97568.49
2019-01-09T10:33:43.317Z,97565.84
2019-01-09T10:36:25.229Z,97553.84
2019-01-09T10:39:14.020Z,97305.78
2019-01-09T10:42:02.827Z,97318.45
2019-01-09T10:44:51.625Z,97555.22
2019-01-09T10:47:40.433Z,97468.95
2019-01-09T10:50:29.217Z,97549.21
2019-01-09T10:53:18.042Z,97269.16
2019-01-09T10:56:06.880Z,97544.08
2019-01-09T10:58:55.689Z,97546.17
2019-01-09T11:01:44.494Z,97556.80
2019-01-09T11:04:33.302Z,97561.30
2019-01-09T11:07:22.122Z,97564.93
2019-01-09T11:10:31.843Z,97556.92
2019-01-09T11:13:20.641Z,97568.97
2019-01-09T11:16:09.443Z,97549.39
2019-01-09T11:18:58.249Z,97567.67
2019-01-09T11:21:47.036Z,97555.35
2019-01-09T11:24:35.837Z,97563.77
2019-01-09T11:27:24.863Z,97552.00
2019-01-09T11:30:34.579Z,97560.36
2019-01-09T11:33:23.362Z,97558.33
2019-01-09T11:36:05.404Z,97576.01
2019-01-09T11:38:55.952Z,97570.05
2019-01-09T11:41:44.716Z,97575.66
2019-01-09T11:44:33.505Z,97581.73
2019-01-09T11:47:22.312Z,97582.10
2019-01-09T11:53:20.884Z,97584.48
2019-01-09T11:56:09.813Z,97560.89
2019-01-09T11:58:58.639Z,97571.45
2019-01-09T12:01:47.434Z,97569.47
2019-01-09T12:04:36.241Z,97346.77
2019-01-09T12:10:39.860Z,97436.31
2019-01-09T12:13:28.645Z,97586.55
2019-01-09T12:16:17.463Z,97595.95
2019-01-09T12:19:06.448Z,97587.16
2019-01-09T12:25:30.930Z,97599.97
2019-01-09T12:28:38.762Z,97599.83
2019-01-09T12:31:20.551Z,97609.28
2019-01-09T12:34:09.353Z,97609.73
2019-01-09T12:36:58.154Z,97615.58
2019-01-09T12:39:46.968Z,97619.81
2019-01-09T12:42:35.753Z,97614.73
2019-01-09T12:45:24.612Z,97610.89
2019-01-09T12:48:13.437Z,97610.07
2019-01-09T12:51:02.281Z,97602.56
2019-01-09T12:53:51.089Z,97457.55
2019-01-09T12:56:39.873Z,97450.27
2019-01-09T12:59:28.677Z,97616.72
2019-01-09T13:02:17.461Z,97624.13
2019-01-09T13:05:06.335Z,97620.83
2019-01-09T13:07:55.122Z,97616.98
2019-01-09T13:10:43.948Z,97622.34
2019-01-09T13:16:27.217Z,97628.45
2019-01-09T13:19:16.017Z,97637.66
2019-01-09T13:21:55.896Z,97519.36
2019-01-09T13:24:44.702Z,97623.64
2019-01-09T13:27:26.270Z,97634.84
2019-01-09T13:30:17.535Z,97627.34
2019-01-09T13:33:06.314Z,97629.75
2019-01-09T13:35:55.115Z,97621.31
2019-01-09T13:38:43.920Z,97636.64
2019-01-09T13:41:32.701Z,97632.75
2019-01-09T13:44:21.512Z,97641.19
2019-01-09T13:47:10.300Z,97641.64
2019-01-09T13:49:59.104Z,97644.14
2019-01-09T13:52:47.951Z,97637.03
2019-01-09T13:55:36.765Z,97643.08
2019-01-09T13:58:25.638Z,97638.30
2019-01-09T14:01:14.455Z,97646.30
2019-01-09T14:04:03.255Z,97654.77
2019-01-09T14:06:52.108Z,97656.67
2019-01-09T14:09:40.916Z,97400.83
2019-01-09T14:12:29.695Z,97671.31
2019-01-09T14:15:39.418Z,97673.31
2019-01-09T14:18:28.209Z,97675.73
2019-01-09T14:21:17.015Z,97667.05
2019-01-09T14:23:58.679Z,97679.57
2019-01-09T14:26:47.483Z,97688.95
2019-01-09T14:29:36.269Z,97694.86
2019-01-09T14:32:25.068Z,97693.93
2019-01-09T14:35:13.946Z,97693.51
2019-01-09T14:38:02.759Z,97703.52
2019-01-09T14:40:51.558Z,97715.20
2019-01-09T14:43:40.364Z,97712.24
2019-01-09T14:46:29.147Z,97706.45
2019-01-09T14:49:17.960Z,97710.97
2019-01-09T14:52:06.747Z,97712.51
2019-01-09T14:54:55.546Z,97555.95
2019-01-09T15:01:13.324Z,97713.91
2019-01-09T15:04:02.204Z,97724.02
2019-01-09T15:06:51.063Z,97726.72
2019-01-09T15:09:39.817Z,97731.88
2019-01-09T15:12:28.603Z,97737.19
2019-01-09T15:18:32.449Z,97742.92
2019-01-09T15:21:21.259Z,97747.72
2019-01-09T15:24:08.398Z,97500.14
2019-01-09T15:26:53.693Z,97600.75
2019-01-09T15:29:42.502Z,97721.43
2019-01-09T15:32:31.292Z,97759.14
2019-01-09T15:35:39.526Z,97658.64
2019-01-09T15:38:28.313Z,97768.94
2019-01-09T15:41:17.123Z,97769.83
2019-01-09T15:44:25.016Z,97766.13
2019-01-09T15:47:13.824Z,97777.29
2019-01-09T15:50:02.618Z,97775.73
2019-01-09T15:52:51.487Z,97776.39
2019-01-09T15:55:40.268Z,97777.02
2019-01-09T15:58:29.083Z,97777.54
2019-01-09T16:01:17.900Z,97784.14
2019-01-09T16:04:06.690Z,97787.38
2019-01-09T16:06:55.496Z,97785.10
2019-01-09T16:09:44.282Z,97791.56
2019-01-09T16:12:33.101Z,97792.66
2019-01-09T16:15:21.887Z,97786.70
2019-01-09T16:17:51.533Z,97787.12
2019-01-09T16:20:40.295Z,97787.75
2019-01-09T16:23:29.093Z,97785.26
2019-01-09T16:26:10.375Z,97787.89
2019-01-09T16:28:59.186Z,97792.44
2019-01-09T16:31:47.972Z,97563.54
2019-01-09T16:34:36.775Z,97785.14
2019-01-09T16:37:25.559Z,97786.25
2019-01-09T16:40:35.283Z,97785.86
2019-01-09T16:43:24.091Z,97793.02
2019-01-09T16:46:12.868Z,97789.02
2019-01-09T16:49:01.748Z,97786.42
2019-01-09T16:51:50.542Z,97526.63
2019-01-09T16:54:41.074Z,97795.96
2019-01-09T16:57:29.858Z,97789.00
2019-01-09T17:00:41.301Z,97795.30
2019-01-09T17:03:30.090Z,97808.77
2019-01-09T17:06:18.924Z,97694.41
2019-01-09T17:12:15.796Z,97545.14
2019-01-09T17:15:25.496Z,97821.77
2019-01-09T17:18:14.308Z,97817.14
2019-01-09T17:21:03.100Z,97824.56
2019-01-09T17:23:51.905Z,97825.28
2019-01-09T17:26:40.703Z,97827.28
2019-01-09T17:29:29.519Z,97837.91
2019-01-09T17:32:18.322Z,97840.73
2019-01-09T17:35:07.414Z,97581.24
2019-01-09T17:37:56.266Z,97849.30
2019-01-09T17:40:45.081Z,97590.86
2019-01-09T17:43:33.869Z,97843.89
2019-01-09T17:46:22.680Z,97847.27
2019-01-09T17:49:11.459Z,97847.03
2019-01-09T17:52:00.274Z,97848.69
2019-01-09T17:54:49.076Z,97857.02
2019-01-09T17:57:37.868Z,97860.41
2019-01-09T18:00:47.595Z,97863.36
2019-01-09T18:03:36.382Z,97863.59
2019-01-09T18:06:25.194Z,97874.17
2019-01-09T18:09:13.985Z,97880.63
2019-01-09T18:12:02.798Z,97869.45
2019-01-09T18:14:51.591Z,97887.73
2019-01-09T18:20:34.532Z,97879.51
2019-01-09T18:23:23.348Z,97608.61
2019-01-09T18:26:05.247Z,97891.80
2019-01-09T18:28:54.055Z,97656.66
2019-01-09T18:32:03.763Z,97896.41
2019-01-09T18:34:52.649Z,97902.03
2019-01-09T18:38:02.397Z,97900.16
2019-01-09T18:41:12.158Z,97898.72
2019-01-09T18:44:21.858Z,97911.32
2019-01-09T18:47:51.096Z,97928.79
2019-01-09T18:51:00.856Z,97683.91
2019-01-09T18:54:08.754Z,97926.33
2019-01-09T18:56:57.540Z,97924.98
2019-01-09T18:59:46.350Z,97927.44
2019-01-09T19:02:35.154Z,97935.67
2019-01-09T19:05:24.018Z,97780.25
2019-01-09T19:08:12.980Z,97943.49
2019-01-09T19:11:07.719Z,97946.38
2019-01-09T19:13:52.409Z,97949.78
2019-01-09T19:16:41.193Z,97960.11
2019-01-09T19:19:49.365Z,97954.17
2019-01-09T19:25:39.018Z,97967.98
2019-01-09T19:28:27.815Z,97966.31
2019-01-09T19:31:35.981Z,97973.22
2019-01-09T19:34:24.794Z,97975.81
2019-01-09T19:37:13.768Z,97894.42
2019-01-09T19:40:02.987Z,97989.91
2019-01-09T19:42:51.836Z,97977.62
2019-01-09T19:45:40.713Z,97981.94
2019-01-09T19:51:57.154Z,97782.50
2019-01-09T20:01:29.932Z,97737.47
2019-01-09T20:04:19.443Z,98000.12
2019-01-09T20:23:54.491Z,98020.53
2019-01-09T20:26:37.623Z,98024.85
2019-01-09T20:29:46.939Z,98001.38
2019-01-09T20:36:40.602Z,97761.57
2019-01-09T20:43:06.093Z,98032.53
2019-01-09T20:49:45.444Z,97728.83
2019-01-09T20:59:54.164Z,98035.25
2019-01-09T21:02:31.017Z,98040.42
2019-01-09T21:12:06.430Z,98051.27
2019-01-09T21:14:55.648Z,98053.80
2019-01-09T21:17:45.672Z,98058.32
2019-01-09T21:20:34.645Z,98067.96
2019-01-09T21:26:32.254Z,98075.45
2019-01-09T21:29:21.835Z,98079.59
2019-01-09T21:32:30.194Z,97844.34
2019-01-09T21:35:19.558Z,98090.58
2019-01-09T21:38:27.646Z,98090.66
2019-01-09T21:41:16.547Z,98095.72
2019-01-09T21:44:05.528Z,98088.59
2019-01-09T21:46:54.403Z,98092.81
2019-01-09T21:49:43.302Z,98090.66
2019-01-09T21:52:51.304Z,98106.55
2019-01-09T21:55:40.136Z,97819.13
2019-01-09T21:58:28.932Z,97995.11
2019-01-09T22:01:17.828Z,98112.66
2019-01-09T22:04:07.257Z,98022.22
2019-01-09T22:06:56.038Z,98102.27
2019-01-09T22:09:44.825Z,98103.83
2019-01-09T22:12:33.636Z,98102.14
2019-01-09T22:18:18.061Z,98113.34
2019-01-09T22:21:06.918Z,98117.51
2019-01-09T22:23:55.730Z,98111.44
2019-01-09T22:26:37.204Z,98113.72
2019-01-09T22:29:26.022Z,98112.85
2019-01-09T22:32:14.804Z,98107.16
2019-01-09T22:38:18.107Z,98121.80
2019-01-09T22:41:06.984Z,98119.83
2019-01-09T22:43:55.780Z,98114.34
2019-01-09T22:46:44.570Z,98118.06
2019-01-09T22:49:33.378Z,98116.13
2019-01-09T22:52:41.257Z,98113.35
2019-01-09T22:55:30.136Z,98110.44
2019-01-09T22:58:18.924Z,98116.61
2019-01-09T23:01:28.682Z,97843.75
2019-01-09T23:07:26.886Z,98134.70
2019-01-09T23:10:15.664Z,98141.61
2019-01-09T23:16:19.386Z,98150.53
2019-01-09T23:19:08.240Z,97986.70
2019-01-09T23:21:57.101Z,98149.94
2019-01-09T23:24:45.894Z,98145.88
2019-01-09T23:27:27.669Z,98145.50
2019-01-09T23:30:16.523Z,98141.66
2019-01-09T23:33:05.404Z,98139.23
2019-01-09T23:35:54.189Z,98147.02
2019-01-09T23:39:02.032Z,98154.09
2019-01-09T23:41:50.899Z,98164.45
2019-01-09T23:44:39.699Z,98161.73
2019-01-09T23:47:28.485Z,98154.38
2019-01-09T23:50:17.473Z,98164.05
2019-01-09T23:53:25.361Z,98171.64
2019-01-09T23:56:14.176Z,98175.66
2019-01-09T23:59:02.988Z,98179.55
